createdAt,value
2022-12-03T00:01:19.827Z,63.48
2022-12-03T00:03:47.783Z,62.53
2022-12-03T00:06:15.870Z,60.65
2022-12-03T00:08:44.151Z,54.14
2022-12-03T00:11:12.268Z,52.97
2022-12-03T00:13:40.059Z,54.63
2022-12-03T00:16:08.544Z,56.31
2022-12-03T00:18:36.476Z,58.00
2022-12-03T00:21:04.425Z,58.98
2022-12-03T00:23:34.889Z,60.10
2022-12-03T00:26:06.498Z,60.61
2022-12-03T00:28:34.611Z,65.00
2022-12-03T00:31:02.624Z,69.17
2022-12-03T00:33:31.333Z,67.00
2022-12-03T00:35:59.670Z,63.74
2022-12-03T00:38:27.440Z,60.69
2022-12-03T00:40:55.314Z,59.94
2022-12-03T00:43:23.451Z,60.44
2022-12-03T00:45:51.386Z,60.24
2022-12-03T00:48:19.215Z,58.73
2022-12-03T00:50:47.421Z,57.54
2022-12-03T00:53:15.345Z,57.46
2022-12-03T00:55:43.125Z,58.33
2022-12-03T00:58:11.138Z,60.46
2022-12-03T01:00:39.026Z,64.65
2022-12-03T01:03:06.850Z,71.31
2022-12-03T01:05:35.264Z,66.39
2022-12-03T01:08:03.264Z,61.28
2022-12-03T01:10:31.108Z,51.63
2022-12-03T01:12:59.184Z,49.14
2022-12-03T01:15:27.038Z,50.58
2022-12-03T01:17:54.979Z,52.44
2022-12-03T01:20:23.202Z,53.51
2022-12-03T01:22:51.131Z,55.71
2022-12-03T01:25:19.095Z,57.92
2022-12-03T01:27:47.169Z,59.61
2022-12-03T01:30:15.156Z,63.00
2022-12-03T01:32:42.996Z,71.51
2022-12-03T01:35:11.201Z,67.54
2022-12-03T01:37:39.095Z,61.05
2022-12-03T01:40:08.420Z,52.58
2022-12-03T01:42:41.012Z,49.75
2022-12-03T01:45:21.400Z,51.29
2022-12-03T01:47:49.870Z,51.90
2022-12-03T01:50:33.196Z,54.50
2022-12-03T01:53:03.330Z,58.32
2022-12-03T01:55:31.438Z,59.85
2022-12-03T01:58:02.122Z,60.17
2022-12-03T02:00:30.847Z,62.13
2022-12-03T02:03:11.481Z,67.25
2022-12-03T02:05:39.627Z,68.68
2022-12-03T02:08:32.075Z,64.95
2022-12-03T02:11:10.671Z,65.22
2022-12-03T02:13:38.754Z,60.31
2022-12-03T02:16:06.954Z,52.76
2022-12-03T02:18:35.053Z,50.37
2022-12-03T02:21:31.163Z,52.27
2022-12-03T02:24:13.436Z,53.02
2022-12-03T02:26:41.348Z,56.66
2022-12-03T02:29:09.218Z,57.95
2022-12-03T02:31:38.412Z,58.92
2022-12-03T02:34:07.883Z,60.29
2022-12-03T02:36:37.100Z,61.19
2022-12-03T02:39:05.689Z,65.98
2022-12-03T02:41:52.664Z,73.00
2022-12-03T02:44:20.614Z,66.35
2022-12-03T02:46:48.485Z,55.65
2022-12-03T02:49:16.376Z,52.43
2022-12-03T02:51:44.894Z,53.18
2022-12-03T02:54:12.944Z,55.76
2022-12-03T02:56:40.889Z,56.69
2022-12-03T02:59:09.130Z,58.40
2022-12-03T03:01:37.209Z,59.27
2022-12-03T03:04:06.695Z,60.32
2022-12-03T03:06:34.800Z,62.50
2022-12-03T03:09:04.229Z,67.71
2022-12-03T03:11:32.411Z,70.25
2022-12-03T03:14:02.707Z,68.42
2022-12-03T03:16:30.704Z,61.98
2022-12-03T03:18:58.699Z,54.37
2022-12-03T03:21:26.881Z,52.86
2022-12-03T03:23:54.668Z,54.06
2022-12-03T03:26:22.660Z,55.55
2022-12-03T03:28:51.993Z,57.25
2022-12-03T03:31:23.162Z,58.56
2022-12-03T03:33:51.739Z,61.92
2022-12-03T03:36:20.250Z,68.70
2022-12-03T03:38:48.456Z,69.94
2022-12-03T03:41:17.902Z,65.10
2022-12-03T03:43:48.049Z,58.27
2022-12-03T03:46:17.341Z,52.82
2022-12-03T03:48:45.600Z,52.83
2022-12-03T03:51:13.970Z,54.37
2022-12-03T03:53:48.026Z,56.63
2022-12-03T03:56:21.580Z,57.51
2022-12-03T03:58:49.864Z,60.58
2022-12-03T04:01:18.278Z,65.44
2022-12-03T04:03:46.361Z,68.18
2022-12-03T04:06:14.300Z,65.70
2022-12-03T04:08:42.142Z,61.40
2022-12-03T04:11:28.560Z,57.89
2022-12-03T04:13:56.415Z,53.59
2022-12-03T04:16:24.301Z,54.01
2022-12-03T04:18:52.432Z,55.77
2022-12-03T04:21:41.455Z,56.70
2022-12-03T04:24:10.980Z,58.22
2022-12-03T04:26:58.129Z,59.82
2022-12-03T04:29:26.159Z,61.00
2022-12-03T04:32:12.885Z,63.68
2022-12-03T04:34:59.691Z,68.38
2022-12-03T04:37:27.669Z,68.60
2022-12-03T04:39:55.608Z,68.73
2022-12-03T04:42:23.514Z,61.27
2022-12-03T04:44:51.516Z,55.70
2022-12-03T04:47:21.823Z,53.45
2022-12-03T04:49:51.553Z,54.72
2022-12-03T04:52:20.667Z,56.12
2022-12-03T04:54:48.639Z,58.21
2022-12-03T04:57:16.886Z,59.01
2022-12-03T04:59:44.769Z,60.62
2022-12-03T05:02:12.795Z,63.66
2022-12-03T05:04:41.671Z,68.69
2022-12-03T05:07:09.654Z,67.69
2022-12-03T05:09:37.399Z,63.77
2022-12-03T05:12:05.465Z,61.38
2022-12-03T05:14:33.513Z,59.11
2022-12-03T05:17:01.458Z,56.25
2022-12-03T05:19:48.167Z,56.75
2022-12-03T05:22:16.059Z,57.43
2022-12-03T05:24:43.823Z,59.72
2022-12-03T05:27:11.713Z,60.57
2022-12-03T05:29:39.785Z,64.74
2022-12-03T05:32:07.544Z,68.23
2022-12-03T05:34:35.477Z,67.22
2022-12-03T05:37:03.569Z,65.49
2022-12-03T05:39:31.451Z,63.54
2022-12-03T05:42:18.194Z,62.00
2022-12-03T05:44:46.578Z,61.38
2022-12-03T05:47:14.489Z,60.68
2022-12-03T05:49:42.553Z,63.24
2022-12-03T05:52:10.663Z,57.87
2022-12-03T05:54:38.695Z,52.55
2022-12-03T05:57:06.593Z,53.53
2022-12-03T05:59:34.484Z,54.81
2022-12-03T06:02:02.731Z,56.32
2022-12-03T06:04:30.829Z,57.93
2022-12-03T06:06:58.970Z,59.00
2022-12-03T06:09:26.988Z,61.75
2022-12-03T06:11:54.988Z,66.88
2022-12-03T06:14:22.908Z,70.61
2022-12-03T06:16:50.931Z,65.39
2022-12-03T06:19:18.806Z,61.76
2022-12-03T06:21:46.594Z,59.87
2022-12-03T06:24:14.361Z,56.96
2022-12-03T06:26:42.273Z,55.87
2022-12-03T06:29:10.147Z,56.49
2022-12-03T06:31:38.009Z,57.77
2022-12-03T06:34:06.114Z,59.68
2022-12-03T06:36:33.849Z,61.35
2022-12-03T06:39:01.607Z,65.33
2022-12-03T06:41:29.619Z,71.61
2022-12-03T06:43:57.505Z,64.95
2022-12-03T06:46:25.493Z,57.24
2022-12-03T06:48:53.437Z,53.84
2022-12-03T06:51:21.313Z,55.12
2022-12-03T06:53:49.121Z,56.44
2022-12-03T06:56:21.921Z,57.39
2022-12-03T06:58:50.412Z,60.62
2022-12-03T07:01:18.661Z,65.10
2022-12-03T07:03:46.767Z,71.69
2022-12-03T07:06:14.615Z,64.81
2022-12-03T07:08:42.542Z,55.24
2022-12-03T07:11:30.410Z,52.05
2022-12-03T07:14:05.151Z,53.11
2022-12-03T07:16:37.637Z,55.29
2022-12-03T07:19:06.889Z,56.95
2022-12-03T07:21:34.752Z,58.34
2022-12-03T07:24:02.546Z,60.41
2022-12-03T07:26:31.000Z,63.99
2022-12-03T07:28:58.938Z,69.99
2022-12-03T07:31:26.929Z,65.48
2022-12-03T07:33:55.495Z,61.33
2022-12-03T07:36:23.427Z,60.11
2022-12-03T07:38:51.198Z,60.69
2022-12-03T07:41:19.583Z,58.84
2022-12-03T07:43:47.532Z,55.24
2022-12-03T07:46:15.845Z,55.59
2022-12-03T07:48:44.090Z,58.08
2022-12-03T07:51:15.253Z,59.11
2022-12-03T07:53:43.621Z,60.43
2022-12-03T07:56:11.883Z,61.19
2022-12-03T07:58:39.889Z,63.44
2022-12-03T08:01:07.837Z,67.23
2022-12-03T08:03:36.049Z,70.69
2022-12-03T08:06:04.166Z,67.59
2022-12-03T08:08:32.048Z,64.26
2022-12-03T08:11:01.977Z,61.27
2022-12-03T08:13:29.828Z,60.98
2022-12-03T08:16:00.788Z,60.44
2022-12-03T08:18:29.364Z,61.75
2022-12-03T08:20:57.415Z,60.99
2022-12-03T08:23:25.952Z,57.32
2022-12-03T08:25:53.981Z,55.64
2022-12-03T08:28:25.775Z,57.04
2022-12-03T08:31:01.864Z,57.92
2022-12-03T08:33:35.571Z,60.11
2022-12-03T08:36:14.851Z,61.09
2022-12-03T08:38:50.017Z,65.64
2022-12-03T08:41:40.063Z,67.76
2022-12-03T08:44:27.719Z,67.42
2022-12-03T08:47:22.416Z,66.35
2022-12-03T08:50:03.368Z,63.78
2022-12-03T08:52:33.468Z,61.55
2022-12-03T08:55:29.182Z,58.15
2022-12-03T08:57:58.380Z,56.17
2022-12-03T09:00:29.696Z,57.82
2022-12-03T09:03:04.055Z,59.57
2022-12-03T09:05:35.504Z,60.69
2022-12-03T09:08:03.410Z,64.51
2022-12-03T09:10:31.310Z,68.26
2022-12-03T09:12:59.284Z,65.44
2022-12-03T09:15:28.686Z,64.72
2022-12-03T09:17:56.605Z,65.10
2022-12-03T09:20:24.498Z,65.85
2022-12-03T09:22:52.372Z,65.17
2022-12-03T09:25:20.215Z,64.57
2022-12-03T09:27:48.233Z,64.00
2022-12-03T09:30:16.995Z,64.49
2022-12-03T09:32:45.369Z,64.92
2022-12-03T09:35:13.335Z,65.13
2022-12-03T09:37:41.216Z,64.76
2022-12-03T09:40:10.700Z,64.20
2022-12-03T09:42:39.030Z,63.51
2022-12-03T09:45:14.522Z,62.99
2022-12-03T09:47:46.170Z,62.72
2022-12-03T09:50:25.867Z,64.20
2022-12-03T09:53:01.706Z,64.12
2022-12-03T09:55:30.773Z,64.41
2022-12-03T09:57:58.948Z,67.65
2022-12-03T10:00:30.739Z,65.07
2022-12-03T10:03:04.663Z,56.73
2022-12-03T10:05:34.006Z,54.34
2022-12-03T10:08:13.631Z,55.94
2022-12-03T10:10:42.101Z,57.18
2022-12-03T10:13:29.920Z,60.90
2022-12-03T10:16:02.706Z,60.99
2022-12-03T10:18:41.591Z,65.49
2022-12-03T10:21:35.110Z,67.30
2022-12-03T10:24:18.102Z,68.40
2022-12-03T10:26:47.550Z,68.41
2022-12-03T10:29:29.645Z,64.49
2022-12-03T10:32:10.288Z,58.98
2022-12-03T10:34:41.600Z,53.21
2022-12-03T10:37:17.222Z,54.06
2022-12-03T10:40:01.899Z,57.10
2022-12-03T10:42:35.285Z,58.52
2022-12-03T10:45:15.706Z,59.95
2022-12-03T10:48:01.448Z,63.83
2022-12-03T10:50:31.189Z,67.57
2022-12-03T10:52:59.406Z,66.99
2022-12-03T10:55:29.778Z,66.93
2022-12-03T10:57:57.844Z,66.94
2022-12-03T11:00:26.484Z,65.59
2022-12-03T11:02:56.999Z,63.99
2022-12-03T11:05:30.420Z,62.83
2022-12-03T11:07:58.295Z,61.52
2022-12-03T11:10:26.578Z,61.12
2022-12-03T11:13:32.379Z,61.57
2022-12-03T11:16:09.518Z,61.04
2022-12-03T11:18:37.406Z,62.29
2022-12-03T11:21:12.692Z,62.22
2022-12-03T11:24:00.876Z,61.15
2022-12-03T11:26:28.839Z,54.61
2022-12-03T11:28:58.458Z,53.37
2022-12-03T11:31:48.555Z,55.57
2022-12-03T11:34:22.707Z,56.56
2022-12-03T11:37:12.516Z,59.08
2022-12-03T11:39:49.704Z,60.43
2022-12-03T11:42:26.837Z,64.45
2022-12-03T11:45:04.244Z,68.90
2022-12-03T11:47:47.968Z,67.29
2022-12-03T11:50:50.309Z,64.87
2022-12-03T11:53:26.989Z,63.45
2022-12-03T11:56:08.627Z,63.16
2022-12-03T11:58:39.170Z,61.79
2022-12-03T12:01:09.018Z,61.16
2022-12-03T12:03:43.615Z,60.53
2022-12-03T12:06:14.340Z,59.90
2022-12-03T12:09:04.122Z,60.00
2022-12-03T12:11:34.771Z,59.78
2022-12-03T12:14:09.923Z,59.63
2022-12-03T12:16:53.074Z,58.43
2022-12-03T12:19:41.477Z,56.88
2022-12-03T12:22:25.156Z,58.33
2022-12-03T12:25:01.392Z,60.68
2022-12-03T12:27:33.407Z,65.34
2022-12-03T12:30:15.098Z,67.30
2022-12-03T12:32:50.542Z,66.40
2022-12-03T12:35:22.860Z,63.32
2022-12-03T12:38:00.073Z,62.72
2022-12-03T12:40:33.760Z,60.29
2022-12-03T12:43:23.981Z,55.86
2022-12-03T12:46:13.687Z,55.57
2022-12-03T12:48:48.239Z,57.35
2022-12-03T12:51:21.098Z,59.68
2022-12-03T12:53:50.252Z,61.44
2022-12-03T12:56:42.608Z,65.66
2022-12-03T12:59:10.609Z,69.92
2022-12-03T13:01:40.300Z,67.85
2022-12-03T13:04:14.172Z,65.53
2022-12-03T13:06:42.591Z,63.20
2022-12-03T13:09:30.206Z,61.44
2022-12-03T13:12:03.114Z,60.01
2022-12-03T13:14:35.325Z,57.33
2022-12-03T13:17:19.668Z,56.77
2022-12-03T13:19:53.887Z,57.90
2022-12-03T13:22:26.329Z,59.17
2022-12-03T13:24:57.463Z,60.75
2022-12-03T13:27:31.863Z,65.65
2022-12-03T13:30:03.989Z,68.97
2022-12-03T13:32:34.674Z,67.70
2022-12-03T13:35:03.498Z,64.71
2022-12-03T13:37:31.753Z,63.44
2022-12-03T13:40:26.519Z,63.37
2022-12-03T13:42:55.293Z,61.67
2022-12-03T13:45:24.972Z,62.01
2022-12-03T13:47:58.886Z,61.47
2022-12-03T13:50:42.045Z,61.46
2022-12-03T13:53:21.798Z,62.57
2022-12-03T13:55:58.064Z,61.68
2022-12-03T13:58:26.294Z,60.29
2022-12-03T14:00:54.517Z,57.67
2022-12-03T14:03:23.488Z,57.69
2022-12-03T14:05:51.383Z,58.86
2022-12-03T14:08:19.546Z,59.99
2022-12-03T14:10:52.107Z,61.05
2022-12-03T14:13:22.355Z,66.17
2022-12-03T14:15:50.197Z,67.82
2022-12-03T14:18:18.053Z,65.94
2022-12-03T14:20:46.490Z,65.94
2022-12-03T14:23:17.313Z,65.77
2022-12-03T14:25:45.234Z,71.55
2022-12-03T14:28:13.426Z,67.33
2022-12-03T14:30:41.258Z,64.99
2022-12-03T14:33:09.141Z,61.17
2022-12-03T14:35:37.437Z,55.31
2022-12-03T14:38:05.289Z,54.79
2022-12-03T14:40:33.085Z,56.91
2022-12-03T14:43:01.263Z,59.13
2022-12-03T14:45:30.104Z,60.84
2022-12-03T14:47:58.149Z,65.46
2022-12-03T14:50:27.044Z,67.81
2022-12-03T14:52:54.854Z,67.39
2022-12-03T14:55:22.715Z,67.33
2022-12-03T14:57:51.184Z,64.95
2022-12-03T15:00:19.499Z,61.85
2022-12-03T15:02:47.523Z,60.71
2022-12-03T15:05:15.733Z,60.26
2022-12-03T15:07:43.681Z,60.13
2022-12-03T15:10:11.826Z,59.90
2022-12-03T15:12:39.830Z,60.35
2022-12-03T15:15:08.174Z,59.73
2022-12-03T15:17:35.926Z,59.70
2022-12-03T15:20:04.283Z,59.84
2022-12-03T15:22:32.328Z,59.86
2022-12-03T15:25:01.996Z,60.17
2022-12-03T15:27:30.202Z,60.26
2022-12-03T15:29:58.166Z,59.02
2022-12-03T15:32:25.962Z,57.64
2022-12-03T15:34:54.058Z,59.05
2022-12-03T15:37:21.995Z,59.86
2022-12-03T15:39:49.808Z,63.86
2022-12-03T15:42:17.874Z,66.37
2022-12-03T15:44:47.270Z,67.41
2022-12-03T15:47:15.218Z,66.11
2022-12-03T15:49:43.278Z,64.73
2022-12-03T15:52:13.452Z,62.98
2022-12-03T15:54:41.499Z,61.79
2022-12-03T15:57:10.014Z,61.25
2022-12-03T15:59:39.011Z,60.97
2022-12-03T16:02:07.848Z,61.17
2022-12-03T16:04:36.908Z,61.14
2022-12-03T16:07:04.786Z,60.78
2022-12-03T16:09:32.742Z,60.47
2022-12-03T16:12:00.799Z,61.35
2022-12-03T16:14:28.682Z,60.74
2022-12-03T16:16:58.919Z,61.27
2022-12-03T16:19:27.034Z,62.27
2022-12-03T16:21:54.886Z,62.91
2022-12-03T16:24:22.953Z,62.96
2022-12-03T16:26:51.027Z,63.29
2022-12-03T16:29:18.870Z,63.54
2022-12-03T16:31:46.888Z,63.87
2022-12-03T16:34:14.890Z,63.20
2022-12-03T16:36:42.768Z,62.54
2022-12-03T16:39:11.047Z,63.42
2022-12-03T16:41:39.753Z,65.00
2022-12-03T16:44:07.632Z,65.63
2022-12-03T16:46:35.677Z,64.56
2022-12-03T16:49:04.194Z,64.07
2022-12-03T16:51:32.040Z,62.66
2022-12-03T16:54:02.160Z,63.03
2022-12-03T16:56:30.190Z,64.65
2022-12-03T16:58:57.982Z,63.65
2022-12-03T17:01:25.950Z,61.80
2022-12-03T17:03:54.770Z,60.58
2022-12-03T17:06:22.616Z,60.48
2022-12-03T17:08:52.789Z,60.13
2022-12-03T17:11:20.868Z,61.06
2022-12-03T17:13:48.656Z,60.39
2022-12-03T17:16:16.777Z,56.71
2022-12-03T17:18:44.831Z,56.31
2022-12-03T17:21:12.856Z,58.55
2022-12-03T17:23:40.751Z,60.06
2022-12-03T17:26:08.719Z,61.33
2022-12-03T17:28:36.519Z,66.18
2022-12-03T17:31:04.577Z,69.85
2022-12-03T17:33:32.999Z,68.29
2022-12-03T17:36:01.736Z,65.24
2022-12-03T17:38:32.761Z,63.07
2022-12-03T17:41:05.691Z,61.32
2022-12-03T17:43:33.540Z,61.47
2022-12-03T17:46:01.594Z,63.18
2022-12-03T17:48:31.421Z,65.01
2022-12-03T17:50:59.641Z,61.26
2022-12-03T17:53:29.772Z,55.66
2022-12-03T17:55:57.895Z,54.13
2022-12-03T17:58:26.963Z,56.47
2022-12-03T18:01:00.273Z,59.08
2022-12-03T18:03:31.285Z,63.62
2022-12-03T18:05:59.337Z,64.68
2022-12-03T18:08:27.288Z,67.90
2022-12-03T18:10:55.454Z,67.49
2022-12-03T18:13:23.217Z,65.40
2022-12-03T18:15:51.109Z,64.88
2022-12-03T18:18:19.371Z,62.08
2022-12-03T18:20:47.358Z,60.09
2022-12-03T18:23:15.308Z,59.32
2022-12-03T18:25:43.533Z,56.78
2022-12-03T18:28:11.358Z,58.01
2022-12-03T18:30:39.230Z,60.76
2022-12-03T18:33:07.493Z,64.24
2022-12-03T18:35:35.427Z,66.94
2022-12-03T18:38:03.275Z,65.96
2022-12-03T18:40:31.530Z,65.33
2022-12-03T18:42:59.932Z,65.72
2022-12-03T18:45:28.805Z,63.74
2022-12-03T18:47:57.081Z,63.68
2022-12-03T18:50:25.128Z,64.22
2022-12-03T18:52:52.945Z,61.90
2022-12-03T18:55:22.046Z,55.64
2022-12-03T18:57:49.851Z,55.31
2022-12-03T19:00:17.869Z,56.88
2022-12-03T19:05:35.287Z,64.09
2022-12-03T19:08:04.081Z,69.27
2022-12-03T19:10:32.048Z,65.41
2022-12-03T19:12:59.919Z,61.88
2022-12-03T19:15:28.039Z,61.15
2022-12-03T19:17:55.823Z,60.27
2022-12-03T19:20:23.601Z,58.07
2022-12-03T19:22:51.990Z,54.91
2022-12-03T19:25:19.770Z,56.10
2022-12-03T19:27:50.143Z,59.56
2022-12-03T19:30:18.319Z,62.74
2022-12-03T19:32:46.201Z,65.56
2022-12-03T19:35:14.078Z,70.08
2022-12-03T19:37:44.390Z,66.25
2022-12-03T19:40:12.408Z,60.98
2022-12-03T19:42:40.432Z,54.23
2022-12-03T19:45:09.364Z,53.92
2022-12-03T19:47:37.432Z,56.60
2022-12-03T19:50:06.403Z,59.29
2022-12-03T19:52:36.762Z,66.30
2022-12-03T19:55:05.251Z,67.80
2022-12-03T19:57:33.071Z,60.51
2022-12-03T20:00:01.435Z,53.70
2022-12-03T20:02:29.374Z,53.60
2022-12-03T20:04:57.390Z,55.98
2022-12-03T20:07:25.722Z,58.59
2022-12-03T20:09:54.111Z,60.56
2022-12-03T20:12:22.099Z,68.64
2022-12-03T20:14:51.843Z,68.98
2022-12-03T20:17:19.952Z,60.53
2022-12-03T20:19:48.061Z,55.13
2022-12-03T20:22:16.231Z,55.96
2022-12-03T20:24:44.002Z,58.32
2022-12-03T20:27:11.875Z,60.77
2022-12-03T20:29:40.313Z,68.61
2022-12-03T20:32:08.255Z,68.99
2022-12-03T20:34:36.359Z,62.19
2022-12-03T20:37:07.468Z,56.33
2022-12-03T20:39:35.236Z,54.00
2022-12-03T20:42:03.053Z,55.96
2022-12-03T20:44:31.247Z,58.10
2022-12-03T20:46:59.092Z,60.50
2022-12-03T20:49:26.865Z,67.83
2022-12-03T20:51:57.064Z,70.08
2022-12-03T20:54:27.734Z,64.39
2022-12-03T20:56:55.681Z,58.78
2022-12-03T20:59:23.753Z,53.96
2022-12-03T21:01:51.642Z,56.46
2022-12-03T21:04:19.645Z,59.55
2022-12-03T21:06:47.825Z,62.74
2022-12-03T21:09:15.672Z,68.79
2022-12-03T21:11:43.696Z,67.64
2022-12-03T21:14:11.890Z,63.48
2022-12-03T21:19:30.447Z,56.44
2022-12-03T21:21:58.341Z,58.58
2022-12-03T21:24:26.659Z,61.02
2022-12-03T21:26:54.876Z,65.83
2022-12-03T21:29:23.031Z,70.70
2022-12-03T21:31:51.253Z,65.80
2022-12-03T21:34:19.664Z,62.62
2022-12-03T21:36:47.535Z,60.92
2022-12-03T21:39:15.462Z,56.76
2022-12-03T21:42:34.512Z,56.62
2022-12-03T21:44:31.710Z,60.98
2022-12-03T21:47:10.664Z,65.25
2022-12-03T21:49:41.868Z,67.26
2022-12-03T21:52:10.805Z,62.58
2022-12-03T21:54:39.114Z,60.92
2022-12-03T21:57:07.096Z,61.02
2022-12-03T21:59:35.676Z,61.19
2022-12-03T22:02:04.374Z,60.18
2022-12-03T22:04:32.598Z,59.13
2022-12-03T22:07:00.873Z,56.79
2022-12-03T22:09:28.708Z,59.83
2022-12-03T22:11:59.311Z,63.87
2022-12-03T22:14:28.316Z,67.12
2022-12-03T22:16:56.255Z,65.91
2022-12-03T22:19:25.805Z,61.97
2022-12-03T22:21:53.901Z,59.34
2022-12-03T22:24:23.858Z,55.77
2022-12-03T22:26:53.566Z,58.62
2022-12-03T22:29:21.837Z,60.55
2022-12-03T22:31:49.674Z,64.53
2022-12-03T22:34:17.473Z,70.90
2022-12-03T22:36:45.708Z,66.10
2022-12-03T22:39:13.485Z,61.48
2022-12-03T22:41:41.298Z,55.07
2022-12-03T22:44:09.423Z,54.91
2022-12-03T22:46:37.325Z,57.58
2022-12-03T22:49:07.357Z,61.19
2022-12-03T22:51:36.075Z,66.77
2022-12-03T22:54:04.374Z,68.45
2022-12-03T22:56:33.017Z,62.84
2022-12-03T22:59:01.227Z,60.67
2022-12-03T23:01:32.518Z,56.48
2022-12-03T23:04:01.094Z,55.50
2022-12-03T23:06:30.789Z,59.77
2022-12-03T23:08:59.445Z,67.51
2022-12-03T23:11:27.943Z,65.64
2022-12-03T23:13:59.173Z,61.48
2022-12-03T23:16:30.777Z,56.00
2022-12-03T23:19:00.519Z,54.33
2022-12-03T23:21:31.737Z,57.44
2022-12-03T23:24:01.569Z,59.59
2022-12-03T23:26:29.793Z,64.76
2022-12-03T23:28:57.558Z,68.24
2022-12-03T23:31:28.891Z,63.59
2022-12-03T23:33:57.805Z,61.18
2022-12-03T23:36:28.263Z,58.28
2022-12-03T23:38:56.230Z,54.74
2022-12-03T23:41:25.148Z,56.98
2022-12-03T23:43:53.059Z,61.30
2022-12-03T23:46:23.706Z,66.28
2022-12-03T23:48:51.970Z,66.84
2022-12-03T23:51:26.852Z,65.42
2022-12-03T23:53:55.930Z,60.66
2022-12-03T23:56:27.076Z,56.42
2022-12-03T23:58:56.175Z,56.09
